Methane Princess — V7VN4 — position and weather

sailwx.info

Track history (hours):
 
Tides and Currents Weather Stations Pressure Air Temp Water Temp Dewpoint Dewpoint Depression Visibility Wind Speed Wind Dir Waves Ship Positions

Methane Princess

Last reported at 2018-Jul-02 12:54 UTC. Time now 2018-Jul-20 14:07 UTC.
Position N 27°34' W 015°24'.
Warning: this ship's position is 18 days out of date.

Length 266 m; draft 9.3 m.

Type: Tanker. MMSI: 538004164.

Date/timePositionNaut miles runAvg speedWind from/ knotsBaromVisibWave heightAir tempDewpointWater temp
2018-Jul-02 12:54N 27°34' W 015°24'613.0
2018-Jul-02 12:29N 27°36' W 015°18'611.7
2018-Jul-02 12:00N 27°40' W 015°14'612.8
2018-Jul-02 11:30N 27°46' W 015°11'611.8
2018-Jul-02 11:00N 27°51' W 015°09'611.9
2018-Jul-02 10:30N 27°57' W 015°12'612.1
2018-Jul-02 10:00N 28°02' W 015°14'611.1
2018-Jul-02 09:30N 28°06' W 015°20'2 3.3
2018-Jul-02 09:00N 28°07' W 015°21'2 4.5
2018-Jul-02 08:29N 28°09' W 015°20'3 6.1
2018-Jul-02 08:00N 28°11' W 015°18'3 6.2
2018-Jul-02 07:30N 28°14' W 015°16'3 6.1
2018-Jul-02 07:00N 28°16' W 015°13'3 5.9
2018-Jul-02 06:30N 28°18' W 015°11'3 6.1
2018-Jul-02 06:00N 28°20' W 015°09'3 6.1
2018-Jul-02 05:30N 28°23' W 015°07'3 6.0
2018-Jul-02 05:00N 28°25' W 015°05'3 6.2
2018-Jul-02 04:30N 28°28' W 015°04'3 6.1
2018-Jul-02 04:00N 28°31' W 015°03'3 6.2
2018-Jul-02 03:30N 28°34' W 015°03'3 6.2
2018-Jul-02 03:00N 28°37' W 015°02'4 7.7
2018-Jul-02 02:30N 28°41' W 015°00'4 7.9
2018-Jul-02 02:00N 28°45' W 014°59'3 6.5
2018-Jul-02 01:30N 28°48' W 014°58'3 5.6
2018-Jul-02 01:00N 28°50' W 014°57'3 5.4
2018-Jul-02 00:29N 28°53' W 014°56'3 5.2
2018-Jul-01 23:56N 28°56' W 014°55'2 3.5
2018-Jul-01 23:24N 28°58' W 014°54'2 4.4
2018-Jul-01 22:50N 28°60' W 014°53'4 6.0
2018-Jul-01 22:14N 29°03' W 014°52'1 5.9
2018-Jul-01 22:00N 29°05' W 014°51'5 4.2
2018-Jul-01 20:49N 29°09' W 014°50'1 1.2
2018-Jul-01 20:22N 29°10' W 014°50'1 1.7
2018-Jul-01 19:49N 29°10' W 014°51'2 1.5
2018-Jul-01 18:29N 29°10' W 014°49'  
2018-Jun-28 20:33N 36°07' W 007°46'212.2
2018-Jun-28 20:22N 36°08' W 007°44'26 0.6
2018-Jun-26 21:52N 36°34' W 007°51'512.9
2018-Jun-26 21:30N 36°38' W 007°52'39 9.1
2018-Jun-26 17:12N 36°20' W 007°09'311.9
2018-Jun-26 16:57N 36°17' W 007°08'  
2018-Jun-23 00:57N 30°00' W 013°35'510.5
2018-Jun-23 00:30N 29°56' W 013°39'910.3
2018-Jun-22 23:35N 29°49' W 013°46'210.3
2018-Jun-22 23:24N 29°48' W 013°47'510.6
2018-Jun-22 22:58N 29°44' W 013°50'510.5
2018-Jun-22 22:30N 29°40' W 013°54'510.6
2018-Jun-22 22:00N 29°36' W 013°58'610.6
2018-Jun-22 21:25N 29°31' W 014°02'410.8
2018-Jun-22 21:00N 29°28' W 014°06'611.0
2018-Jun-22 20:30N 29°24' W 014°10'510.8
2018-Jun-22 19:59N 29°19' W 014°13'510.6
2018-Jun-22 19:30N 29°15' W 014°17'510.7
2018-Jun-22 19:00N 29°11' W 014°21'511.0
2018-Jun-22 18:30N 29°07' W 014°26'610.9
2018-Jun-22 17:59N 29°03' W 014°30'510.9
2018-Jun-22 17:30N 28°59' W 014°33'610.9
2018-Jun-22 17:00N 28°55' W 014°37'610.8
2018-Jun-22 16:27N 28°50' W 014°41'511.0
2018-Jun-22 16:00N 28°46' W 014°45'610.9
2018-Jun-22 15:30N 28°42' W 014°49'510.9
2018-Jun-22 15:00N 28°38' W 014°53'510.9
2018-Jun-22 14:31N 28°33' W 014°57'510.8
2018-Jun-22 14:00N 28°29' W 015°01'510.7
2018-Jun-22 13:30N 28°25' W 015°05'510.3
2018-Jun-22 13:00N 28°21' W 015°08'  
Track history (hours):
 
Tides and Currents Weather Stations Pressure Air Temp Water Temp Dewpoint Dewpoint Depression Visibility Wind Speed Wind Dir Waves Ship Positions

Methane Princess

Last reported at 2018-Jul-02 12:54 UTC. Time now 2018-Jul-20 14:07 UTC.
Position N 27°34' W 015°24'.
Warning: this ship's position is 18 days out of date.

Length 266 m; draft 9.3 m.

Type: Tanker. MMSI: 538004164.

Date/timePositionNaut miles runAvg speedWind from/ knotsBaromVisibWave heightAir tempDewpointWater temp
2018-Jul-02 12:54N 27°34' W 015°24'613.0
2018-Jul-02 12:29N 27°36' W 015°18'611.7
2018-Jul-02 12:00N 27°40' W 015°14'612.8
2018-Jul-02 11:30N 27°46' W 015°11'611.8
2018-Jul-02 11:00N 27°51' W 015°09'611.9
2018-Jul-02 10:30N 27°57' W 015°12'612.1
2018-Jul-02 10:00N 28°02' W 015°14'611.1
2018-Jul-02 09:30N 28°06' W 015°20'2 3.3
2018-Jul-02 09:00N 28°07' W 015°21'2 4.5
2018-Jul-02 08:29N 28°09' W 015°20'3 6.1
2018-Jul-02 08:00N 28°11' W 015°18'3 6.2
2018-Jul-02 07:30N 28°14' W 015°16'3 6.1
2018-Jul-02 07:00N 28°16' W 015°13'3 5.9
2018-Jul-02 06:30N 28°18' W 015°11'3 6.1
2018-Jul-02 06:00N 28°20' W 015°09'3 6.1
2018-Jul-02 05:30N 28°23' W 015°07'3 6.0
2018-Jul-02 05:00N 28°25' W 015°05'3 6.2
2018-Jul-02 04:30N 28°28' W 015°04'3 6.1
2018-Jul-02 04:00N 28°31' W 015°03'3 6.2
2018-Jul-02 03:30N 28°34' W 015°03'3 6.2
2018-Jul-02 03:00N 28°37' W 015°02'4 7.7
2018-Jul-02 02:30N 28°41' W 015°00'4 7.9
2018-Jul-02 02:00N 28°45' W 014°59'3 6.5
2018-Jul-02 01:30N 28°48' W 014°58'3 5.6
2018-Jul-02 01:00N 28°50' W 014°57'3 5.4
2018-Jul-02 00:29N 28°53' W 014°56'3 5.2
2018-Jul-01 23:56N 28°56' W 014°55'2 3.5
2018-Jul-01 23:24N 28°58' W 014°54'2 4.4
2018-Jul-01 22:50N 28°60' W 014°53'4 6.0
2018-Jul-01 22:14N 29°03' W 014°52'1 5.9
2018-Jul-01 22:00N 29°05' W 014°51'5 4.2
2018-Jul-01 20:49N 29°09' W 014°50'1 1.2
2018-Jul-01 20:22N 29°10' W 014°50'1 1.7
2018-Jul-01 19:49N 29°10' W 014°51'2 1.5
2018-Jul-01 18:29N 29°10' W 014°49'  
2018-Jun-28 20:33N 36°07' W 007°46'212.2
2018-Jun-28 20:22N 36°08' W 007°44'26 0.6
2018-Jun-26 21:52N 36°34' W 007°51'512.9
2018-Jun-26 21:30N 36°38' W 007°52'39 9.1
2018-Jun-26 17:12N 36°20' W 007°09'311.9
2018-Jun-26 16:57N 36°17' W 007°08'  
2018-Jun-23 00:57N 30°00' W 013°35'510.5
2018-Jun-23 00:30N 29°56' W 013°39'910.3
2018-Jun-22 23:35N 29°49' W 013°46'210.3
2018-Jun-22 23:24N 29°48' W 013°47'510.6
2018-Jun-22 22:58N 29°44' W 013°50'510.5
2018-Jun-22 22:30N 29°40' W 013°54'510.6
2018-Jun-22 22:00N 29°36' W 013°58'610.6
2018-Jun-22 21:25N 29°31' W 014°02'410.8
2018-Jun-22 21:00N 29°28' W 014°06'611.0
2018-Jun-22 20:30N 29°24' W 014°10'510.8
2018-Jun-22 19:59N 29°19' W 014°13'510.6
2018-Jun-22 19:30N 29°15' W 014°17'510.7
2018-Jun-22 19:00N 29°11' W 014°21'511.0
2018-Jun-22 18:30N 29°07' W 014°26'610.9
2018-Jun-22 17:59N 29°03' W 014°30'510.9
2018-Jun-22 17:30N 28°59' W 014°33'610.9
2018-Jun-22 17:00N 28°55' W 014°37'610.8
2018-Jun-22 16:27N 28°50' W 014°41'511.0
2018-Jun-22 16:00N 28°46' W 014°45'610.9
2018-Jun-22 15:30N 28°42' W 014°49'510.9
2018-Jun-22 15:00N 28°38' W 014°53'510.9
2018-Jun-22 14:31N 28°33' W 014°57'510.8
2018-Jun-22 14:00N 28°29' W 015°01'510.7
2018-Jun-22 13:30N 28°25' W 015°05'510.3
2018-Jun-22 13:00N 28°21' W 015°08'  

Dump ship's entire track history